createdAt,value
2017-10-13T00:01:55.723Z,82.80
2017-10-13T00:04:26.604Z,82.80
2017-10-13T00:06:57.020Z,82.90
2017-10-13T00:09:30.813Z,82.80
2017-10-13T00:12:00.214Z,82.70
2017-10-13T00:14:30.036Z,83.00
2017-10-13T00:17:07.289Z,83.10
2017-10-13T00:19:51.950Z,83.20
2017-10-13T00:22:24.184Z,83.60
2017-10-13T00:24:53.719Z,83.70
2017-10-13T00:27:23.784Z,84.00
2017-10-13T00:29:53.455Z,84.10
2017-10-13T00:32:23.304Z,84.50
2017-10-13T00:34:54.385Z,85.10
2017-10-13T00:37:24.063Z,85.10
2017-10-13T00:39:54.376Z,85.20
2017-10-13T00:42:24.244Z,85.20
2017-10-13T00:44:53.791Z,85.10
2017-10-13T00:47:23.419Z,85.20
2017-10-13T00:49:53.569Z,85.00
2017-10-13T00:52:23.495Z,85.00
2017-10-13T00:54:53.257Z,84.80
2017-10-13T00:57:24.424Z,84.90
2017-10-13T00:59:59.679Z,85.00
2017-10-13T01:02:29.194Z,85.00
2017-10-13T01:04:58.736Z,85.20
2017-10-13T01:07:30.078Z,85.40
2017-10-13T01:09:59.896Z,85.50
2017-10-13T01:12:29.565Z,85.60
2017-10-13T01:14:59.245Z,85.90
2017-10-13T01:17:29.402Z,86.00
2017-10-13T01:19:59.265Z,86.20
2017-10-13T01:22:29.580Z,87.00
2017-10-13T01:24:59.204Z,87.00
2017-10-13T01:27:28.902Z,87.40
2017-10-13T01:29:58.442Z,87.60
2017-10-13T01:32:27.755Z,87.60
2017-10-13T01:34:57.118Z,87.80
2017-10-13T01:37:27.765Z,88.00
2017-10-13T01:39:57.661Z,87.90
2017-10-13T01:42:27.944Z,88.30
2017-10-13T01:44:57.328Z,88.30
2017-10-13T01:47:27.791Z,88.60
